Main page
METAR-TAF:

METAR-TAF

Airports :

Burgos Airport

Burgos, Spain

latitude: 42-22N, longitude: 003-38W, elevation: 894 m

Current weather observation

The report was made 43 minutes ago, at 03:30 UTC
Wind 11 kt from the Northeast, varying between North and East/Northeast
Temperature 13°C
Humidity 88%
Pressure 1021 hPa
Visibility 10 km or more
Overcast at a height of 900 ft
light rain

METAR: LEBG 200330Z AUTO 04011KT 360V060 9999 -RA OVC009 13/11 Q1021

Time: 06:13 (04:13 UTC)

Forecast

The report was made 2 hours and 13 minutes ago, at 02:00 UTC
Forecast valid from 20 at 03 UTC to 20 at 12 UTC
Wind 14 kt from the Northeast
Visibility 10 km or more
Overcast at a height of 800 ft
Becoming
from 20 at 08 UTC to 20 at 10 UTC
Scattered clouds at a height of 1300 ft

TAF: LEBG 200200Z 2003/2012 05014KT 9999 OVC008 BECMG 2008/2010 SCT013

Weather observations and forecasts of more than 4000 airports (METAR and TAF reports).

The available stations are represented by yellow and red dots on the map.

Hover mouse over dot to see the name of the station.

Then click to see weather observations and forecasts.

To change the map : click on the green buttons with a black cross to zoom in, on the green button with a dash to zoom out, or on the green arrows for adjacent maps.


METAR-TAF: